createdAt,value
2018-07-17T00:00:21.037Z,25.46
2018-07-17T00:05:05.754Z,25.15
2018-07-17T00:09:49.366Z,25.38
2018-07-17T00:14:36.309Z,25.39
2018-07-17T00:19:19.804Z,25.39
2018-07-17T00:24:04.330Z,25.43
2018-07-17T00:28:47.959Z,25.44
2018-07-17T00:33:35.043Z,25.39
2018-07-17T00:38:18.650Z,25.18
2018-07-17T00:43:03.293Z,24.81
2018-07-17T00:47:46.878Z,25.29
2018-07-17T00:52:31.390Z,25.00
2018-07-17T00:57:14.862Z,25.03
2018-07-17T01:02:03.696Z,25.10
2018-07-17T01:06:56.119Z,24.80
2018-07-17T01:11:44.966Z,24.87
2018-07-17T01:16:29.673Z,24.92
2018-07-17T01:21:13.249Z,24.95
2018-07-17T01:25:56.973Z,24.73
2018-07-17T01:30:40.621Z,24.98
2018-07-17T01:35:25.204Z,24.92
2018-07-17T01:40:08.670Z,24.99
2018-07-17T01:44:53.521Z,24.84
2018-07-17T01:49:37.703Z,24.62
2018-07-17T01:54:25.107Z,24.48
2018-07-17T01:59:08.647Z,24.73
2018-07-17T02:03:53.281Z,24.72
2018-07-17T02:08:36.796Z,24.91
2018-07-17T02:13:23.654Z,24.30
2018-07-17T02:18:07.182Z,24.21
2018-07-17T02:22:50.997Z,24.32
2018-07-17T02:27:34.519Z,24.51
2018-07-17T02:32:18.316Z,24.57
2018-07-17T02:37:01.970Z,24.11
2018-07-17T02:41:45.560Z,24.29
2018-07-17T02:46:32.197Z,24.13
2018-07-17T02:51:15.753Z,24.18
2018-07-17T02:56:02.701Z,24.29
2018-07-17T03:00:46.166Z,24.18
2018-07-17T03:05:29.738Z,24.36
2018-07-17T03:10:13.258Z,24.38
2018-07-17T03:15:02.651Z,24.40
2018-07-17T03:19:46.149Z,23.99
2018-07-17T03:24:30.721Z,23.71
2018-07-17T03:29:14.063Z,23.88
2018-07-17T03:34:01.540Z,24.17
2018-07-17T03:38:44.928Z,23.79
2018-07-17T03:43:29.724Z,23.89
2018-07-17T03:48:13.214Z,24.06
2018-07-17T03:52:59.809Z,24.04
2018-07-17T03:57:43.416Z,24.16
2018-07-17T04:02:27.101Z,24.25
2018-07-17T04:07:10.413Z,24.19
2018-07-17T04:11:54.986Z,24.28
2018-07-17T04:16:44.498Z,24.09
2018-07-17T04:21:28.058Z,24.25
2018-07-17T04:26:16.058Z,24.28
2018-07-17T04:30:59.594Z,24.27
2018-07-17T04:35:44.247Z,24.17
2018-07-17T04:40:27.827Z,24.08
2018-07-17T04:45:16.322Z,24.02
2018-07-17T04:49:59.726Z,24.20
2018-07-17T04:54:43.805Z,24.21
2018-07-17T04:59:27.328Z,24.00
2018-07-17T05:04:11.079Z,23.98
2018-07-17T05:08:54.570Z,23.82
2018-07-17T05:13:44.406Z,23.99
2018-07-17T05:18:28.010Z,24.08
2018-07-17T05:23:15.143Z,24.15
2018-07-17T05:27:58.420Z,24.20
2018-07-17T05:32:43.177Z,24.32
2018-07-17T05:37:26.603Z,24.34
2018-07-17T05:42:10.457Z,24.35
2018-07-17T05:46:53.943Z,24.39
2018-07-17T05:51:37.474Z,24.44
2018-07-17T05:56:21.269Z,24.36
2018-07-17T06:01:04.818Z,24.43
2018-07-17T06:05:52.022Z,24.43
2018-07-17T06:10:35.660Z,24.61
2018-07-17T06:15:22.565Z,24.53
2018-07-17T06:20:07.261Z,24.72
2018-07-17T06:24:54.205Z,24.85
2018-07-17T06:29:37.709Z,24.77
2018-07-17T06:34:25.032Z,24.81
2018-07-17T06:39:09.509Z,24.82
2018-07-17T06:43:53.970Z,25.06
2018-07-17T06:48:37.451Z,25.33
2018-07-17T06:53:23.949Z,25.13
2018-07-17T06:58:07.512Z,25.50
2018-07-17T07:02:54.054Z,25.46
2018-07-17T07:07:37.548Z,25.57
2018-07-17T07:12:22.021Z,25.50
2018-07-17T07:17:09.983Z,25.76
2018-07-17T07:22:00.869Z,25.81
2018-07-17T07:26:44.498Z,25.85
2018-07-17T07:31:31.217Z,25.77
2018-07-17T07:36:14.778Z,25.92
2018-07-17T07:40:59.088Z,26.02
2018-07-17T07:45:47.077Z,26.27
2018-07-17T07:50:31.338Z,26.34
2018-07-17T07:55:15.247Z,26.06
2018-07-17T07:59:59.809Z,26.33
2018-07-17T08:04:48.143Z,26.39
2018-07-17T08:09:31.785Z,26.08
2018-07-17T08:14:19.694Z,26.24
2018-07-17T08:19:05.281Z,26.20
2018-07-17T08:23:52.157Z,26.57
2018-07-17T08:28:35.532Z,26.60
2018-07-17T08:33:22.989Z,26.89
2018-07-17T08:38:06.626Z,26.86
2018-07-17T08:42:53.619Z,27.10
2018-07-17T08:47:37.173Z,26.99
2018-07-17T08:52:21.809Z,26.96
2018-07-17T08:57:05.441Z,27.24
2018-07-17T09:01:50.105Z,26.95
2018-07-17T09:06:33.662Z,26.90
2018-07-17T09:11:20.646Z,27.91
2018-07-17T09:16:04.272Z,27.23
2018-07-17T09:20:47.914Z,27.14
2018-07-17T09:25:31.589Z,27.31
2018-07-17T09:30:15.011Z,27.40
2018-07-17T09:34:59.522Z,27.42
2018-07-17T09:39:42.999Z,27.66
2018-07-17T09:44:27.612Z,27.28
2018-07-17T09:49:11.166Z,27.57
2018-07-17T09:53:54.863Z,27.84
2018-07-17T09:58:38.412Z,27.40
2018-07-17T10:03:22.978Z,27.86
2018-07-17T10:08:06.681Z,27.47
2018-07-17T10:12:53.756Z,28.02
2018-07-17T10:17:37.282Z,27.60
2018-07-17T10:22:22.837Z,28.13
2018-07-17T10:27:06.636Z,28.08
2018-07-17T10:31:51.185Z,28.18
2018-07-17T10:36:34.785Z,28.54
2018-07-17T10:41:19.716Z,28.17
2018-07-17T10:46:03.335Z,28.55
2018-07-17T10:50:46.885Z,28.35
2018-07-17T10:55:31.326Z,28.39
2018-07-17T11:00:17.766Z,28.19
2018-07-17T11:05:02.315Z,29.07
2018-07-17T11:09:46.489Z,28.62
2018-07-17T11:14:33.746Z,29.17
2018-07-17T11:19:17.373Z,28.74
2018-07-17T11:24:01.143Z,28.67
2018-07-17T11:28:44.705Z,28.67
2018-07-17T11:33:29.246Z,29.59
2018-07-17T11:38:14.603Z,28.99
2018-07-17T11:42:59.394Z,29.56
2018-07-17T11:47:43.032Z,28.92
2018-07-17T11:52:30.470Z,29.33
2018-07-17T11:57:14.153Z,29.28
2018-07-17T12:02:00.757Z,29.63
2018-07-17T12:06:44.286Z,29.80
2018-07-17T12:11:28.971Z,29.48
2018-07-17T12:16:12.628Z,30.02
2018-07-17T12:20:59.314Z,29.84
2018-07-17T12:25:42.823Z,30.37
2018-07-17T12:30:26.404Z,30.24
2018-07-17T12:35:09.953Z,30.30
2018-07-17T12:39:53.393Z,30.43
2018-07-17T12:44:37.977Z,29.65
2018-07-17T12:49:21.391Z,30.45
2018-07-17T12:54:05.149Z,30.13
2018-07-17T12:58:49.170Z,29.96
2018-07-17T13:03:34.445Z,30.23
2018-07-17T13:08:18.024Z,30.49
2018-07-17T13:13:04.738Z,30.23
2018-07-17T13:17:48.423Z,30.21
2018-07-17T13:22:34.800Z,30.06
2018-07-17T13:27:18.440Z,29.95
2018-07-17T13:32:03.017Z,29.77
2018-07-17T13:36:46.728Z,29.86
2018-07-17T13:41:36.428Z,29.78
2018-07-17T13:46:20.086Z,29.64
2018-07-17T13:51:04.856Z,29.58
2018-07-17T13:55:48.381Z,29.55
2018-07-17T14:00:35.233Z,29.54
2018-07-17T14:05:18.919Z,29.63
2018-07-17T14:10:02.489Z,29.53
2018-07-17T14:14:49.338Z,29.47
2018-07-17T14:19:32.997Z,29.56
2018-07-17T14:24:16.735Z,29.53
2018-07-17T14:29:00.207Z,29.53
2018-07-17T14:33:44.798Z,29.53
2018-07-17T14:38:28.238Z,29.51
2018-07-17T14:43:12.875Z,29.46
2018-07-17T14:47:56.393Z,29.41
2018-07-17T14:52:40.826Z,29.43
2018-07-17T14:57:24.361Z,29.43
2018-07-17T15:02:11.531Z,29.40
2018-07-17T15:06:55.162Z,29.20
2018-07-17T15:11:42.197Z,29.03
2018-07-17T15:16:25.705Z,29.06
2018-07-17T15:21:09.569Z,28.66
2018-07-17T15:25:53.058Z,28.78
2018-07-17T15:30:46.725Z,28.66
2018-07-17T15:35:30.353Z,28.83
2018-07-17T15:40:19.609Z,28.91
2018-07-17T15:49:54.107Z,28.85
2018-07-17T15:54:38.523Z,28.79
2018-07-17T15:59:22.000Z,28.91
2018-07-17T16:04:12.458Z,28.89
2018-07-17T16:08:56.860Z,28.90
2018-07-17T16:13:45.338Z,28.83
2018-07-17T16:18:30.037Z,28.98
2018-07-17T16:23:13.846Z,28.95
2018-07-17T16:28:01.454Z,28.93
2018-07-17T16:32:52.492Z,28.82
2018-07-17T16:37:39.907Z,28.97
2018-07-17T16:42:33.312Z,28.94
2018-07-17T16:47:21.043Z,28.94
2018-07-17T16:52:05.692Z,28.95
2018-07-17T16:56:49.165Z,28.83
2018-07-17T17:01:37.128Z,28.89
2018-07-17T17:06:20.778Z,28.90
2018-07-17T17:11:07.459Z,28.89
2018-07-17T17:15:51.064Z,28.84
2018-07-17T17:20:34.610Z,28.88
2018-07-17T17:25:18.151Z,28.87
2018-07-17T17:30:01.887Z,28.80
2018-07-17T17:34:45.345Z,28.81
2018-07-17T17:39:29.076Z,28.81
2018-07-17T17:44:13.359Z,28.86
2018-07-17T17:48:56.958Z,28.80
2018-07-17T17:53:46.917Z,28.64
2018-07-17T17:58:30.411Z,28.35
2018-07-17T18:03:17.746Z,28.37
2018-07-17T18:08:01.254Z,28.31
2018-07-17T18:12:45.812Z,28.13
2018-07-17T18:17:33.508Z,28.03
2018-07-17T18:22:17.870Z,28.00
2018-07-17T18:27:01.435Z,27.97
2018-07-17T18:31:48.464Z,28.14
2018-07-17T18:36:36.429Z,27.88
2018-07-17T18:41:41.885Z,28.02
2018-07-17T18:46:40.958Z,28.10
2018-07-17T18:51:27.819Z,28.16
2018-07-17T18:56:12.569Z,28.22
2018-07-17T19:01:00.058Z,27.97
2018-07-17T19:05:43.445Z,27.94
2018-07-17T19:10:27.076Z,28.10
2018-07-17T19:15:10.585Z,28.14
2018-07-17T19:19:54.148Z,28.15
2018-07-17T19:24:37.749Z,28.08
2018-07-17T19:29:21.689Z,28.07
2018-07-17T19:34:10.857Z,28.07
2018-07-17T19:38:54.443Z,27.88
2018-07-17T19:43:39.110Z,27.75
2018-07-17T19:48:22.638Z,27.86
2018-07-17T19:53:06.363Z,27.97
2018-07-17T19:57:49.961Z,27.98
2018-07-17T20:02:36.633Z,27.96
2018-07-17T20:07:20.181Z,27.91
2018-07-17T20:12:07.444Z,27.88
2018-07-17T20:16:50.800Z,27.82
2018-07-17T20:21:40.490Z,27.80
2018-07-17T20:26:27.536Z,27.75
2018-07-17T20:31:11.307Z,27.73
2018-07-17T20:35:54.981Z,27.63
2018-07-17T20:40:38.873Z,27.30
2018-07-17T20:45:22.367Z,27.26
2018-07-17T20:50:06.126Z,27.39
2018-07-17T20:54:49.677Z,27.38
2018-07-17T20:59:33.369Z,27.47
2018-07-17T21:04:29.056Z,27.50
2018-07-17T21:09:12.512Z,27.52
2018-07-17T21:13:56.041Z,27.50
2018-07-17T21:18:39.706Z,27.45
2018-07-17T21:23:23.435Z,27.38
2018-07-17T21:28:07.235Z,27.47
2018-07-17T21:32:50.952Z,27.36
2018-07-17T21:37:34.495Z,27.32
2018-07-17T21:42:18.244Z,27.25
2018-07-17T21:47:01.581Z,27.15
2018-07-17T21:51:45.243Z,27.22
2018-07-17T21:56:28.875Z,27.24
2018-07-17T22:01:12.499Z,26.84
2018-07-17T22:05:55.976Z,27.10
2018-07-17T22:10:42.682Z,27.04
2018-07-17T22:15:26.343Z,26.93
2018-07-17T22:20:09.967Z,26.56
2018-07-17T22:24:53.510Z,26.66
2018-07-17T22:29:38.051Z,26.53
2018-07-17T22:34:21.563Z,26.60
2018-07-17T22:39:07.838Z,26.48
2018-07-17T22:43:51.513Z,26.36
2018-07-17T22:48:34.915Z,26.00
2018-07-17T22:53:18.570Z,26.59
2018-07-17T22:58:02.070Z,26.58
2018-07-17T23:02:45.652Z,26.47
2018-07-17T23:07:29.145Z,26.42
2018-07-17T23:12:12.730Z,26.11
2018-07-17T23:16:56.173Z,25.93
2018-07-17T23:21:40.779Z,25.97
2018-07-17T23:26:24.432Z,25.83
2018-07-17T23:31:11.681Z,25.59
2018-07-17T23:35:55.053Z,25.72
2018-07-17T23:40:38.971Z,25.48
2018-07-17T23:45:23.132Z,25.55
2018-07-17T23:50:06.868Z,25.39
2018-07-17T23:54:50.550Z,25.55
2018-07-17T23:59:35.170Z,25.45
